KCVO/CVO METAR and TAF weather

Enter ICAO airport designator
Station Type Date Time Source
KCVO METAR 2018/04/21 20:56 UTC NOAA

KCVO 212056Z AUTO VRB06KT 10SM CLR 16/03 A3040 RMK AO2 SLP296 60001 T01560028 58009


Station Type Date Time Source
KCVO Decoded METAR 2018/04/21 20:56 UTC NOAA

Corvallis, Corvallis Municipal Airport, OR, United States (KCVO) 44-30N 123-17W
Apr 21, 2018 - 04:56 PM EDT / 2018.04.21 2056 UTC
Wind: Variable at 7 MPH (6 KT):0
Visibility: 10 mile(s):0
Sky conditions: clear
Temperature: 60.1 F (15.6 C)
Dew Point: 37.0 F (2.8 C)
Relative Humidity: 42%
Pressure (altimeter): 30.4 in. Hg (1029 hPa)
Pressure tendency: 0.03 inches (0.9 hPa) lower than three hours ago
ob: KCVO 212056Z AUTO VRB06KT 10SM CLR 16/03 A3040 RMK AO2 SLP296 60001 T01560028 58009
cycle: 21

Station Type Date Time Source
KCVO TAF UTC NOAA

Error!


Example: see airport list